createdAt,value
2023-03-04T00:01:20.706Z,35.80
2023-03-04T00:04:24.837Z,36.61
2023-03-04T00:07:27.799Z,37.03
2023-03-04T00:10:30.561Z,36.81
2023-03-04T00:13:33.382Z,37.66
2023-03-04T00:16:36.247Z,37.40
2023-03-04T00:19:43.797Z,37.83
2023-03-04T00:22:48.857Z,38.26
2023-03-04T00:25:51.616Z,38.02
2023-03-04T00:28:57.367Z,38.33
2023-03-04T00:32:02.470Z,38.10
2023-03-04T00:35:07.342Z,38.52
2023-03-04T00:38:10.452Z,38.72
2023-03-04T00:41:13.220Z,38.52
2023-03-04T00:44:15.998Z,38.51
2023-03-04T00:47:18.820Z,38.44
2023-03-04T00:50:24.377Z,38.72
2023-03-04T00:53:27.145Z,38.51
2023-03-04T00:56:30.215Z,38.75
2023-03-04T00:59:36.185Z,38.29
2023-03-04T01:02:39.220Z,38.42
2023-03-04T01:05:44.757Z,38.63
2023-03-04T01:08:47.508Z,38.04
2023-03-04T01:11:50.272Z,38.27
2023-03-04T01:14:53.118Z,38.73
2023-03-04T01:17:56.225Z,38.02
2023-03-04T01:21:00.363Z,38.45
2023-03-04T01:24:03.164Z,38.53
2023-03-04T01:27:06.010Z,38.64
2023-03-04T01:30:09.169Z,38.46
2023-03-04T01:33:11.961Z,38.45
2023-03-04T01:36:16.116Z,38.45
2023-03-04T01:39:20.696Z,38.59
2023-03-04T01:42:24.674Z,38.49
2023-03-04T01:45:29.940Z,38.80
2023-03-04T01:48:36.635Z,38.43
2023-03-04T01:51:50.014Z,38.85
2023-03-04T01:54:52.783Z,38.67
2023-03-04T01:57:57.437Z,38.69
2023-03-04T02:01:00.565Z,38.65
2023-03-04T02:04:03.704Z,38.73
2023-03-04T02:07:07.913Z,38.54
2023-03-04T02:10:11.503Z,38.89
2023-03-04T02:13:14.918Z,38.92
2023-03-04T02:16:17.733Z,38.56
2023-03-04T02:19:26.306Z,38.66
2023-03-04T02:22:30.478Z,38.90
2023-03-04T02:25:36.940Z,38.81
2023-03-04T02:28:41.095Z,38.94
2023-03-04T02:31:44.880Z,38.71
2023-03-04T02:34:48.464Z,38.85
2023-03-04T02:37:53.316Z,39.02
2023-03-04T02:40:57.464Z,38.75
2023-03-04T02:44:02.576Z,38.85
2023-03-04T02:47:07.550Z,38.91
2023-03-04T02:50:11.106Z,38.80
2023-03-04T02:53:15.416Z,38.86
2023-03-04T02:56:18.202Z,38.76
2023-03-04T02:59:22.843Z,38.89
2023-03-04T03:02:28.449Z,38.60
2023-03-04T03:05:34.429Z,38.74
2023-03-04T03:08:37.204Z,38.52
2023-03-04T03:11:40.161Z,38.38
2023-03-04T03:14:47.186Z,38.27
2023-03-04T03:17:50.226Z,37.98
2023-03-04T03:20:52.977Z,37.80
2023-03-04T03:23:55.774Z,37.50
2023-03-04T03:26:58.553Z,37.79
2023-03-04T03:30:03.234Z,37.70
2023-03-04T03:33:07.177Z,37.50
2023-03-04T03:36:10.209Z,37.47
2023-03-04T03:39:12.938Z,37.38
2023-03-04T03:42:15.778Z,37.30
2023-03-04T03:45:19.949Z,37.38
2023-03-04T03:48:22.878Z,37.31
2023-03-04T03:51:25.684Z,37.50
2023-03-04T03:54:29.967Z,37.29
2023-03-04T03:57:35.764Z,37.26
2023-03-04T04:00:39.896Z,37.44
2023-03-04T04:03:42.644Z,37.23
2023-03-04T04:06:46.547Z,37.22
2023-03-04T04:09:50.568Z,37.20
2023-03-04T04:12:53.368Z,37.18
2023-03-04T04:15:57.560Z,37.28
2023-03-04T04:19:00.366Z,37.24
2023-03-04T04:22:03.172Z,37.09
2023-03-04T04:25:10.765Z,37.18
2023-03-04T04:28:13.633Z,37.02
2023-03-04T04:31:17.860Z,36.66
2023-03-04T04:34:20.654Z,36.84
2023-03-04T04:37:23.416Z,36.78
2023-03-04T04:40:26.193Z,36.67
2023-03-04T04:43:29.020Z,36.55
2023-03-04T04:46:33.184Z,36.61
2023-03-04T04:49:36.000Z,36.43
2023-03-04T04:52:40.390Z,36.59
2023-03-04T04:55:43.120Z,36.38
2023-03-04T04:58:46.154Z,36.37
2023-03-04T05:01:54.689Z,36.36
2023-03-04T05:04:57.417Z,36.55
2023-03-04T05:08:00.214Z,36.56
2023-03-04T05:11:03.428Z,36.72
2023-03-04T05:14:08.076Z,36.47
2023-03-04T05:17:12.203Z,36.72
2023-03-04T05:20:15.082Z,36.74
2023-03-04T05:23:17.920Z,36.89
2023-03-04T05:26:20.853Z,36.80
2023-03-04T05:29:23.621Z,36.87
2023-03-04T05:32:27.858Z,36.88
2023-03-04T05:35:30.657Z,36.85
2023-03-04T05:38:36.630Z,36.95
2023-03-04T05:41:39.375Z,37.06
2023-03-04T05:44:42.177Z,36.93
2023-03-04T05:47:46.327Z,36.86
2023-03-04T05:50:49.032Z,36.77
2023-03-04T05:53:51.872Z,36.88
2023-03-04T05:56:54.857Z,36.83
2023-03-04T05:59:57.621Z,37.07
2023-03-04T06:03:02.945Z,36.97
2023-03-04T06:06:05.996Z,36.90
2023-03-04T06:09:11.068Z,36.80
2023-03-04T06:12:13.940Z,36.81
2023-03-04T06:15:16.647Z,36.96
2023-03-04T06:18:20.760Z,36.88
2023-03-04T06:21:23.500Z,36.88
2023-03-04T06:24:28.394Z,36.87
2023-03-04T06:27:31.244Z,36.96
2023-03-04T06:30:34.008Z,36.82
2023-03-04T06:33:39.489Z,36.81
2023-03-04T06:36:42.296Z,36.90
2023-03-04T06:39:45.280Z,36.80
2023-03-04T06:42:47.997Z,36.78
2023-03-04T06:45:50.829Z,37.06
2023-03-04T06:48:54.941Z,37.00
2023-03-04T06:51:57.708Z,37.00
2023-03-04T06:55:00.489Z,37.01
2023-03-04T06:58:03.318Z,37.03
2023-03-04T07:01:13.152Z,36.92
2023-03-04T07:04:17.446Z,36.81
2023-03-04T07:07:20.230Z,36.89
2023-03-04T07:10:25.562Z,36.85
2023-03-04T07:13:28.387Z,36.87
2023-03-04T07:16:31.265Z,36.92
2023-03-04T07:19:35.412Z,36.76
2023-03-04T07:22:41.100Z,36.88
2023-03-04T07:25:43.817Z,36.97
2023-03-04T07:28:46.620Z,36.93
2023-03-04T07:31:51.576Z,36.88
2023-03-04T07:34:57.415Z,36.96
2023-03-04T07:38:00.228Z,36.92
2023-03-04T07:41:02.983Z,36.97
2023-03-04T07:44:06.725Z,37.12
2023-03-04T07:47:09.504Z,37.05
2023-03-04T07:50:15.417Z,37.01
2023-03-04T07:53:19.738Z,36.99
2023-03-04T07:56:23.813Z,37.04
2023-03-04T07:59:26.627Z,37.08
2023-03-04T08:02:32.168Z,36.93
2023-03-04T08:05:36.382Z,37.01
2023-03-04T08:08:39.294Z,36.85
2023-03-04T08:11:42.177Z,36.79
2023-03-04T08:14:44.995Z,36.79
2023-03-04T08:17:47.762Z,36.77
2023-03-04T08:20:52.505Z,36.74
2023-03-04T08:23:55.771Z,36.67
2023-03-04T08:26:58.711Z,36.78
2023-03-04T08:30:01.405Z,36.62
2023-03-04T08:33:04.666Z,36.74
2023-03-04T08:36:10.673Z,36.58
2023-03-04T08:39:15.017Z,36.63
2023-03-04T08:42:17.741Z,36.45
2023-03-04T08:45:24.265Z,36.61
2023-03-04T08:48:27.057Z,36.63
2023-03-04T08:51:31.177Z,36.59
2023-03-04T08:54:33.969Z,36.77
2023-03-04T08:57:36.749Z,36.85
2023-03-04T09:00:43.057Z,37.00
2023-03-04T09:03:45.830Z,37.11
2023-03-04T09:06:50.040Z,37.10
2023-03-04T09:09:52.816Z,37.98
2023-03-04T09:12:55.629Z,37.34
2023-03-04T09:15:58.797Z,37.59
2023-03-04T09:19:01.642Z,37.27
2023-03-04T09:22:05.815Z,37.03
2023-03-04T09:25:12.866Z,36.91
2023-03-04T09:28:16.572Z,36.62
2023-03-04T09:31:19.437Z,36.33
2023-03-04T09:34:22.243Z,36.56
2023-03-04T09:37:26.448Z,36.46
2023-03-04T09:40:31.549Z,36.00
2023-03-04T09:43:34.657Z,36.24
2023-03-04T09:46:39.662Z,35.85
2023-03-04T09:49:45.855Z,36.17
2023-03-04T09:52:58.335Z,36.15
2023-03-04T09:56:02.420Z,35.83
2023-03-04T09:59:12.743Z,35.84
2023-03-04T10:02:20.351Z,35.76
2023-03-04T10:05:28.596Z,35.64
2023-03-04T10:08:46.554Z,35.33
2023-03-04T10:11:54.280Z,35.47
2023-03-04T10:15:01.801Z,35.35
2023-03-04T10:18:08.245Z,35.29
2023-03-04T10:21:18.616Z,35.21
2023-03-04T10:24:25.258Z,35.21
2023-03-04T10:27:30.193Z,35.68
2023-03-04T10:30:38.100Z,35.50
2023-03-04T10:33:41.584Z,35.38
2023-03-04T10:36:52.921Z,35.27
2023-03-04T10:39:57.088Z,35.26
2023-03-04T10:43:00.943Z,35.03
2023-03-04T10:46:03.798Z,35.25
2023-03-04T10:49:06.642Z,35.02
2023-03-04T10:52:19.265Z,35.04
2023-03-04T10:55:24.859Z,34.98
2023-03-04T10:58:27.692Z,34.84
2023-03-04T11:01:30.453Z,34.83
2023-03-04T11:04:34.764Z,34.92
2023-03-04T11:07:54.026Z,34.99
2023-03-04T11:10:59.691Z,35.15
2023-03-04T11:14:03.975Z,35.10
2023-03-04T11:17:18.215Z,35.25
2023-03-04T11:20:27.652Z,35.33
2023-03-04T11:23:35.276Z,35.49
2023-03-04T11:26:41.488Z,35.21
2023-03-04T11:29:49.762Z,35.24
2023-03-04T11:32:56.416Z,35.40
2023-03-04T11:36:05.070Z,35.38
2023-03-04T11:39:15.338Z,35.37
2023-03-04T11:42:29.661Z,35.46
2023-03-04T11:45:42.531Z,35.65
2023-03-04T11:48:50.759Z,35.91
2023-03-04T11:51:57.146Z,36.00
2023-03-04T11:55:11.782Z,35.85
2023-03-04T11:58:36.604Z,36.17
2023-03-04T12:01:44.387Z,36.29
2023-03-04T12:05:12.758Z,36.08
2023-03-04T12:08:22.889Z,36.12
2023-03-04T12:11:32.247Z,35.95
2023-03-04T12:14:38.653Z,36.08
2023-03-04T12:17:49.902Z,36.05
2023-03-04T12:21:03.828Z,35.81
2023-03-04T12:24:25.001Z,36.13
2023-03-04T12:27:32.635Z,36.30
2023-03-04T12:30:43.667Z,36.22
2023-03-04T12:33:54.376Z,36.10
2023-03-04T12:37:08.149Z,36.01
2023-03-04T12:40:25.175Z,35.91
2023-03-04T12:43:36.610Z,35.80
2023-03-04T12:46:46.516Z,35.99
2023-03-04T12:49:56.776Z,36.09
2023-03-04T12:53:03.337Z,36.22
2023-03-04T12:56:08.681Z,36.21
2023-03-04T12:59:15.636Z,36.13
2023-03-04T13:02:42.287Z,36.23
2023-03-04T13:06:05.300Z,36.07
2023-03-04T13:09:13.862Z,36.09
2023-03-04T13:12:19.731Z,36.13
2023-03-04T13:15:31.754Z,36.06
2023-03-04T13:18:35.337Z,36.17
2023-03-04T13:21:48.125Z,36.27
2023-03-04T13:24:52.480Z,36.32
2023-03-04T13:28:07.453Z,36.16
2023-03-04T13:31:15.646Z,35.96
2023-03-04T13:34:33.331Z,35.81
2023-03-04T13:37:36.648Z,35.68
2023-03-04T13:40:43.318Z,35.28
2023-03-04T13:43:46.716Z,35.39
2023-03-04T13:46:50.921Z,35.35
2023-03-04T13:50:21.579Z,35.22
2023-03-04T13:53:42.272Z,35.17
2023-03-04T13:56:53.264Z,34.94
2023-03-04T14:00:01.189Z,34.91
2023-03-04T14:03:21.023Z,34.95
2023-03-04T14:06:27.204Z,34.86
2023-03-04T14:09:30.872Z,34.46
2023-03-04T14:12:36.963Z,34.69
2023-03-04T14:15:40.436Z,34.96
2023-03-04T14:18:43.205Z,34.74
2023-03-04T14:21:46.393Z,34.33
2023-03-04T14:24:57.898Z,34.75
2023-03-04T14:28:16.488Z,34.58
2023-03-04T14:31:20.624Z,34.72
2023-03-04T14:34:26.683Z,34.92
2023-03-04T14:37:34.333Z,34.67
2023-03-04T14:40:40.133Z,34.92
2023-03-04T14:43:50.362Z,35.21
2023-03-04T14:47:06.874Z,35.04
2023-03-04T14:50:14.561Z,35.20
2023-03-04T14:53:19.184Z,35.23
2023-03-04T14:56:28.065Z,35.17
2023-03-04T14:59:41.492Z,35.16
2023-03-04T15:02:45.249Z,35.12
2023-03-04T15:05:50.037Z,35.06
2023-03-04T15:09:01.004Z,35.07
2023-03-04T15:12:04.848Z,35.10
2023-03-04T15:15:22.501Z,35.20
2023-03-04T15:18:27.440Z,35.05
2023-03-04T15:21:37.105Z,35.11
2023-03-04T15:24:42.370Z,34.83
2023-03-04T15:27:45.637Z,34.76
2023-03-04T15:30:48.519Z,34.78
2023-03-04T15:33:52.742Z,34.78
2023-03-04T15:37:01.882Z,34.97
2023-03-04T15:40:08.407Z,34.85
2023-03-04T15:43:14.663Z,34.94
2023-03-04T15:46:19.523Z,34.90
2023-03-04T15:49:23.781Z,34.85
2023-03-04T15:52:26.612Z,34.95
2023-03-04T15:55:33.199Z,34.92
2023-03-04T15:58:36.085Z,34.63
2023-03-04T16:01:41.865Z,34.67
2023-03-04T16:04:46.092Z,34.79
2023-03-04T16:07:50.140Z,34.74
2023-03-04T16:10:53.416Z,34.96
2023-03-04T16:13:58.667Z,34.86
2023-03-04T16:17:01.713Z,34.69
2023-03-04T16:20:06.346Z,34.59
2023-03-04T16:23:12.197Z,34.61
2023-03-04T16:26:23.289Z,34.63
2023-03-04T16:29:26.036Z,35.01
2023-03-04T16:32:29.187Z,34.73
2023-03-04T16:35:38.209Z,34.66
2023-03-04T16:38:41.059Z,34.90
2023-03-04T16:41:43.845Z,34.74
2023-03-04T16:44:46.893Z,34.74
2023-03-04T16:47:49.925Z,34.91
2023-03-04T16:50:54.169Z,35.12
2023-03-04T16:54:00.326Z,35.13
2023-03-04T16:57:03.247Z,35.10
2023-03-04T17:00:08.236Z,35.03
2023-03-04T17:03:13.432Z,34.75
2023-03-04T17:06:21.909Z,34.77
2023-03-04T17:09:24.713Z,34.81
2023-03-04T17:12:27.476Z,34.86
2023-03-04T17:15:30.261Z,34.99
2023-03-04T17:18:33.104Z,34.91
2023-03-04T17:21:37.338Z,34.86
2023-03-04T17:24:40.165Z,35.14
2023-03-04T17:27:43.475Z,35.24
2023-03-04T17:30:46.243Z,35.22
2023-03-04T17:33:49.375Z,35.51
2023-03-04T17:36:53.720Z,35.44
2023-03-04T17:39:56.628Z,35.49
2023-03-04T17:42:59.474Z,35.68
2023-03-04T17:46:06.279Z,35.10
2023-03-04T17:49:09.111Z,35.43
2023-03-04T17:52:13.290Z,35.60
2023-03-04T17:55:16.177Z,35.69
2023-03-04T17:58:20.372Z,35.57
2023-03-04T18:01:23.243Z,35.73
2023-03-04T18:04:26.026Z,35.76
2023-03-04T18:07:30.434Z,35.68
2023-03-04T18:10:33.401Z,35.68
2023-03-04T18:13:40.563Z,35.60
2023-03-04T18:16:43.341Z,35.54
2023-03-04T18:19:46.076Z,35.51
2023-03-04T18:22:53.013Z,35.51
2023-03-04T18:25:56.213Z,35.43
2023-03-04T18:28:58.992Z,35.27
2023-03-04T18:32:01.942Z,35.21
2023-03-04T18:35:05.011Z,35.01
2023-03-04T18:38:09.180Z,34.81
2023-03-04T18:41:13.066Z,34.85
2023-03-04T18:44:15.741Z,34.84
2023-03-04T18:47:18.797Z,34.47
2023-03-04T18:50:22.055Z,34.59
2023-03-04T18:53:27.505Z,36.78
2023-03-04T18:56:39.090Z,36.66
2023-03-04T18:59:44.338Z,36.28
2023-03-04T19:02:48.703Z,35.95
2023-03-04T19:05:51.458Z,35.56
2023-03-04T19:08:57.542Z,35.50
2023-03-04T19:12:01.667Z,35.43
2023-03-04T19:15:05.825Z,35.48
2023-03-04T19:18:09.092Z,35.47
2023-03-04T19:21:11.863Z,35.45
2023-03-04T19:24:15.986Z,35.50
2023-03-04T19:27:20.582Z,35.58
2023-03-04T19:30:23.450Z,35.48
2023-03-04T19:33:27.058Z,35.42
2023-03-04T19:36:29.906Z,35.58
2023-03-04T19:39:34.042Z,35.57
2023-03-04T19:42:37.048Z,35.55
2023-03-04T19:45:39.931Z,35.61
2023-03-04T19:48:45.123Z,35.58
2023-03-04T19:51:47.988Z,35.58
2023-03-04T19:54:52.157Z,35.77
2023-03-04T19:57:54.898Z,35.69
2023-03-04T20:00:58.697Z,35.70
2023-03-04T20:04:05.393Z,35.68
2023-03-04T20:07:08.192Z,35.81
2023-03-04T20:10:18.922Z,35.78
2023-03-04T20:13:21.740Z,35.72
2023-03-04T20:16:24.517Z,35.74
2023-03-04T20:19:28.282Z,36.00
2023-03-04T20:22:31.505Z,35.98
2023-03-04T20:25:35.677Z,35.91
2023-03-04T20:28:38.791Z,35.99
2023-03-04T20:31:41.684Z,36.02
2023-03-04T20:34:44.405Z,35.90
2023-03-04T20:37:47.236Z,35.88
2023-03-04T20:40:51.352Z,35.69
2023-03-04T20:43:56.480Z,35.45
2023-03-04T20:46:59.276Z,35.16
2023-03-04T20:50:02.081Z,35.28
2023-03-04T20:53:04.865Z,35.04
2023-03-04T20:56:09.138Z,35.03
2023-03-04T20:59:12.920Z,34.74
2023-03-04T21:02:17.093Z,34.79
2023-03-04T21:05:20.092Z,34.85
2023-03-04T21:08:22.883Z,34.77
2023-03-04T21:11:27.100Z,34.83
2023-03-04T21:14:30.462Z,35.06
2023-03-04T21:17:33.269Z,35.04
2023-03-04T21:20:38.221Z,35.01
2023-03-04T21:23:41.074Z,34.88
2023-03-04T21:26:48.613Z,34.53
2023-03-04T21:29:52.549Z,34.52
2023-03-04T21:32:55.516Z,34.39
2023-03-04T21:35:58.650Z,34.74
2023-03-04T21:39:01.451Z,34.60
2023-03-04T21:42:05.858Z,34.38
2023-03-04T21:45:09.068Z,34.72
2023-03-04T21:48:11.911Z,34.61
2023-03-04T21:51:16.077Z,34.49
2023-03-04T21:54:19.265Z,34.71
2023-03-04T21:57:23.397Z,34.60
2023-03-04T22:00:26.311Z,34.51
2023-03-04T22:03:29.132Z,34.52
2023-03-04T22:06:33.695Z,34.89
2023-03-04T22:09:36.478Z,34.93
2023-03-04T22:12:40.592Z,34.85
2023-03-04T22:15:46.576Z,35.00
2023-03-04T22:18:51.960Z,34.80
2023-03-04T22:21:54.891Z,34.76
2023-03-04T22:24:59.612Z,34.86
2023-03-04T22:28:04.141Z,34.64
2023-03-04T22:31:14.032Z,34.39
2023-03-04T22:34:16.927Z,34.41
2023-03-04T22:37:21.540Z,34.26
2023-03-04T22:40:24.758Z,34.38
2023-03-04T22:43:28.954Z,34.42
2023-03-04T22:46:33.058Z,34.51
2023-03-04T22:49:35.864Z,34.43
2023-03-04T22:52:40.604Z,34.49
2023-03-04T22:55:43.348Z,34.63
2023-03-04T22:58:47.806Z,34.46
2023-03-04T23:01:50.598Z,34.52
2023-03-04T23:04:53.456Z,34.43
2023-03-04T23:07:56.209Z,34.17
2023-03-04T23:11:00.800Z,34.31
2023-03-04T23:14:07.165Z,34.21
2023-03-04T23:17:10.225Z,34.37
2023-03-04T23:20:14.145Z,34.35
2023-03-04T23:23:17.019Z,34.33
2023-03-04T23:26:21.292Z,34.24
2023-03-04T23:29:25.363Z,34.16
2023-03-04T23:32:29.956Z,34.39
2023-03-04T23:35:32.773Z,34.30
2023-03-04T23:38:35.558Z,34.38
2023-03-04T23:41:38.954Z,34.12
2023-03-04T23:44:43.370Z,34.13
2023-03-04T23:47:50.734Z,34.05
2023-03-04T23:50:54.051Z,34.11
2023-03-04T23:53:57.584Z,34.19
2023-03-04T23:57:00.741Z,34.09
